Coaldale, Colorado
Current Conditions -  °F | °C
As of 3:55 AM on Saturday 25 Oct 2014 (Local Time) from KANK Reporting Station
Clear Clear  
Wind Chill: 38°   Ceiling: Unl
Heat Index: 43°   Visibility: 10mi
Dew Point: 22°   Wind: 9mph
Humidity: 42%   Direction: 310°NW
Pressure: 30.49"   Gusts: NA
Location:  38.37°N, 105.76°W
Report Text: KANK 250955Z AUTO 31008KT 10SM CLR 06/M06 A3049 RMK AO1 T00631057
Loading
Personal Weather Stations






























Interactive Weather Map
Tropical Storm Tracking
New forecast layout! Learn more

10-Day Weather Forecast

Advertisements
Track Severe Weather on mobile